Time;durP1;ratioP1;P1;durP2;ratioP2;P2;SDS_P1;SDS_P2;PMS_P1;PMS_P2;Temp;Humidity;BMP_temperature;BMP_pressure;BME280_temperature;BME280_humidity;BME280_pressure;Samples;Min_cycle;Max_cycle;Signal;HPM_P1;HPM_P2
2021/01/19 00:01:16;;;;;;;106.10;38.92;;;;;;;-6.22;77.97;98259.16;1824586;78;21093;-75
2021/01/19 00:03:42;;;;;;;79.87;33.28;;;;;;;-6.18;78.07;98258.32;1824640;77;21522;-74
2021/01/19 00:06:09;;;;;;;95.40;33.02;;;;;;;-6.07;78.16;98260.09;1824741;78;21130;-74
2021/01/19 00:08:35;;;;;;;61.05;28.50;;;;;;;-6.05;78.43;98260.78;1824589;77;21145;-74
2021/01/19 00:11:01;;;;;;;98.58;36.77;;;;;;;-5.94;78.33;98255.63;1824507;78;21554;-74
2021/01/19 00:13:28;;;;;;;71.53;30.32;;;;;;;-5.92;78.53;98251.00;1823903;77;21031;-74
2021/01/19 00:15:54;;;;;;;65.75;23.65;;;;;;;-5.85;78.42;98244.52;1824593;78;21526;-74
2021/01/19 00:18:20;;;;;;;58.55;24.55;;;;;;;-5.82;78.45;98233.61;1824673;77;21086;-74
2021/01/19 00:20:47;;;;;;;88.37;32.25;;;;;;;-5.86;78.55;98235.78;1824591;78;21533;-74
2021/01/19 00:23:13;;;;;;;127.67;49.73;;;;;;;-5.82;78.46;98234.44;1824466;77;21015;-75
2021/01/19 00:25:40;;;;;;;53.42;26.40;;;;;;;-5.81;78.50;98235.25;1824683;78;21589;-76
2021/01/19 00:28:07;;;;;;;89.52;32.40;;;;;;;-5.68;78.46;98232.41;1824466;77;21070;-75
2021/01/19 00:30:33;;;;;;;82.10;35.43;;;;;;;-5.64;78.46;98236.02;1824567;78;21094;-74
2021/01/19 00:32:59;;;;;;;79.67;31.27;;;;;;;-5.61;78.72;98236.52;1797101;78;21193;-76
2021/01/19 00:35:26;;;;;;;90.15;38.40;;;;;;;-5.54;78.61;98233.52;1824500;78;21149;-75
2021/01/19 00:37:53;;;;;;;39.98;20.70;;;;;;;-5.53;78.69;98229.05;1824515;77;21062;-75
2021/01/19 00:40:20;;;;;;;35.17;18.37;;;;;;;-5.48;78.73;98227.52;1824685;78;21073;-75
2021/01/19 00:42:46;;;;;;;76.60;33.02;;;;;;;-5.45;78.71;98223.73;1824533;77;21570;-75
2021/01/19 00:45:12;;;;;;;72.97;30.85;;;;;;;-5.44;78.73;98224.87;1824582;78;21068;-75
2021/01/19 00:47:38;;;;;;;96.65;36.00;;;;;;;-5.43;78.84;98227.02;1824548;77;21138;-75
2021/01/19 00:50:07;;;;;;;102.12;39.38;;;;;;;-5.39;78.84;98220.38;1826657;78;21470;-76
2021/01/19 00:52:33;;;;;;;113.23;43.20;;;;;;;-5.35;78.82;98215.59;1826762;77;21070;-75
2021/01/19 00:54:59;;;;;;;85.77;38.53;;;;;;;-5.27;79.08;98209.76;1826630;78;21153;-76
2021/01/19 00:57:25;;;;;;;88.30;39.38;;;;;;;-5.18;79.44;98204.74;1826602;77;21458;-74
2021/01/19 00:59:52;;;;;;;94.83;39.67;;;;;;;-5.08;79.23;98216.91;1826626;78;21586;-74
2021/01/19 01:02:18;;;;;;;137.75;50.43;;;;;;;-5.04;78.86;98208.46;1826566;78;21090;-76
2021/01/19 01:04:44;;;;;;;102.92;42.75;;;;;;;-4.99;78.69;98208.73;1826596;77;21161;-75
2021/01/19 01:07:10;;;;;;;116.97;46.65;;;;;;;-4.87;78.44;98209.13;1826580;78;21130;-74
2021/01/19 01:09:37;;;;;;;112.10;47.65;;;;;;;-4.86;78.19;98202.87;1826603;77;22086;-75
2021/01/19 01:12:05;;;;;;;74.30;30.62;;;;;;;-4.88;78.23;98207.49;1826502;78;21086;-75
2021/01/19 01:14:32;;;;;;;127.32;56.70;;;;;;;-4.81;77.81;98193.89;1826524;77;21102;-75
2021/01/19 01:16:59;;;;;;;108.15;46.02;;;;;;;-4.87;77.80;98197.23;1826658;78;21546;-76
2021/01/19 01:19:26;;;;;;;86.50;30.17;;;;;;;-4.89;77.81;98191.31;1826542;77;21035;-74
2021/01/19 01:21:52;;;;;;;102.87;43.30;;;;;;;-4.85;78.22;98195.27;1826674;78;21196;-75
2021/01/19 01:24:18;;;;;;;94.77;36.90;;;;;;;-4.88;78.00;98180.56;1826438;77;21153;-75
2021/01/19 01:26:44;;;;;;;52.38;22.37;;;;;;;-4.80;77.97;98182.31;1826543;78;21146;-75
2021/01/19 01:29:10;;;;;;;94.22;39.98;;;;;;;-4.77;77.82;98175.88;1826575;77;21090;-74
2021/01/19 01:31:37;;;;;;;126.40;46.90;;;;;;;-4.86;77.95;98181.22;1826571;78;21149;-74
2021/01/19 01:34:03;;;;;;;108.97;44.77;;;;;;;-4.94;77.90;98167.25;1826601;77;22161;-74
2021/01/19 01:36:29;;;;;;;129.42;48.75;;;;;;;-4.95;78.05;98165.11;1826506;78;20947;-74
2021/01/19 01:38:56;;;;;;;113.95;45.88;;;;;;;-4.94;78.51;98176.00;1826523;77;21039;-74
2021/01/19 01:41:22;;;;;;;105.20;43.33;;;;;;;-4.87;78.41;98166.37;1826672;78;21164;-74
2021/01/19 01:43:49;;;;;;;125.95;46.53;;;;;;;-4.84;77.93;98164.67;1826525;77;21141;-74
2021/01/19 01:46:16;;;;;;;101.80;46.42;;;;;;;-4.81;78.10;98171.42;1826638;78;21177;-75
2021/01/19 01:48:44;;;;;;;116.40;49.75;;;;;;;-4.83;78.61;98163.67;1826379;77;21074;-74
2021/01/19 01:51:11;;;;;;;150.47;62.20;;;;;;;-4.76;78.22;98159.83;1826879;78;21086;-77
2021/01/19 01:53:38;;;;;;;46.85;18.70;;;;;;;-4.69;78.10;98159.44;1826584;77;21022;-75
2021/01/19 01:56:05;;;;;;;55.48;22.70;;;;;;;-4.62;77.69;98161.66;1826542;78;21101;-76
2021/01/19 01:58:33;;;;;;;109.45;45.12;;;;;;;-4.62;77.77;98155.05;1826470;77;21192;-75
2021/01/19 02:00:59;;;;;;;61.50;27.17;;;;;;;-4.70;77.87;98149.86;1826593;78;21110;-75
2021/01/19 02:03:25;;;;;;;93.20;40.00;;;;;;;-4.71;77.96;98150.02;1826544;77;21530;-75
2021/01/19 02:05:51;;;;;;;114.67;51.45;;;;;;;-4.85;78.00;98151.64;1826530;78;21118;-75
2021/01/19 02:08:54;;;;;;;149.20;60.80;;;;;;;-4.94;78.07;98145.61;1826463;77;20995;-75
2021/01/19 02:11:50;;;;;;;76.53;27.22;;;;;;;-5.01;78.28;98145.98;1826653;78;21206;-75
2021/01/19 02:14:39;;;;;;;116.73;50.12;;;;;;;-4.95;78.34;98150.57;1826015;77;21030;-75
2021/01/19 02:17:44;;;;;;;55.40;25.15;;;;;;;-5.00;78.42;98141.02;1826717;78;21058;-75
2021/01/19 02:20:25;;;;;;;54.08;22.00;;;;;;;-4.94;78.72;98139.50;1826543;78;21550;-75
2021/01/19 02:23:30;;;;;;;112.10;48.98;;;;;;;-4.93;78.75;98143.78;1826514;77;21032;-75
2021/01/19 02:26:35;;;;;;;210.30;69.60;;;;;;;-4.93;79.17;98141.95;1826611;78;21144;-76
2021/01/19 02:29:27;;;;;;;123.97;45.35;;;;;;;-4.86;79.30;98134.96;1826370;77;21071;-75
2021/01/19 02:32:12;;;;;;;103.78;37.73;;;;;;;-4.76;78.83;98129.92;1817593;78;21102;-74
2021/01/19 02:34:53;;;;;;;123.62;46.92;;;;;;;-4.75;79.29;98135.52;1826416;77;21146;-75
2021/01/19 02:37:44;;;;;;;90.30;35.95;;;;;;;-4.78;79.57;98127.45;1888315;76;22618;-74
2021/01/19 02:40:11;;;;;;;76.87;31.93;;;;;;;-4.84;79.68;98130.81;1826596;78;21006;-75
2021/01/19 02:42:52;;;;;;;81.55;27.80;;;;;;;-4.89;79.76;98130.52;1822140;77;21266;-75
2021/01/19 02:45:18;;;;;;;144.95;65.55;;;;;;;-4.90;80.02;98126.23;1826962;78;20988;-75
2021/01/19 02:47:44;;;;;;;63.70;25.60;;;;;;;-4.94;80.20;98123.14;1827329;77;21043;-75
2021/01/19 02:50:12;;;;;;;75.22;30.10;;;;;;;-4.88;80.21;98125.05;1827322;78;21165;-75
2021/01/19 02:52:39;;;;;;;101.33;45.85;;;;;;;-4.86;80.42;98125.70;1827388;77;20979;-74
2021/01/19 02:55:06;;;;;;;110.80;49.85;;;;;;;-4.88;80.65;98119.75;1795418;78;21199;-74
2021/01/19 02:58:04;;;;;;;96.02;45.10;;;;;;;-4.91;80.58;98124.09;1827358;77;20955;-74
2021/01/19 03:00:45;;;;;;;43.68;21.87;;;;;;;-4.88;80.71;98120.26;1827521;78;20868;-75
2021/01/19 03:03:12;;;;;;;40.60;19.02;;;;;;;-4.76;81.08;98123.31;1827314;77;21099;-75
2021/01/19 03:05:38;;;;;;;100.22;44.03;;;;;;;-4.83;81.32;98117.41;1795366;78;21023;-75
2021/01/19 03:08:05;;;;;;;114.10;41.68;;;;;;;-4.89;81.27;98118.62;1827391;77;21228;-75
2021/01/19 03:10:37;;;;;;;52.10;22.95;;;;;;;-4.90;81.32;98115.66;1827230;78;21439;-75
2021/01/19 03:13:04;;;;;;;97.47;40.58;;;;;;;-4.83;81.69;98117.41;1822371;78;21098;-75
2021/01/19 03:15:30;;;;;;;101.67;42.88;;;;;;;-4.87;82.00;98106.88;1827289;78;21165;-75
2021/01/19 03:17:56;;;;;;;64.77;32.15;;;;;;;-4.88;82.40;98108.36;1827300;77;21419;-75
2021/01/19 03:20:25;;;;;;;53.58;24.23;;;;;;;-4.72;82.55;98106.06;1795342;78;21204;-76
2021/01/19 03:22:50;;;;;;;77.08;31.57;;;;;;;-4.67;82.93;98103.21;1827226;77;21053;-75
2021/01/19 03:25:17;;;;;;;48.85;20.85;;;;;;;-4.63;83.11;98105.80;1827254;78;21563;-75
2021/01/19 03:27:43;;;;;;;54.53;24.72;;;;;;;-4.62;83.28;98089.43;1827262;77;21218;-75
2021/01/19 03:30:11;;;;;;;49.58;19.55;;;;;;;-4.54;83.31;98098.10;1827289;78;21146;-75
2021/01/19 03:32:37;;;;;;;40.08;15.00;;;;;;;-4.46;83.61;98094.55;1827563;77;21462;-75
2021/01/19 03:35:06;;;;;;;37.13;18.95;;;;;;;-4.39;83.72;98090.67;1827224;78;21109;-75
2021/01/19 03:37:32;;;;;;;66.10;32.48;;;;;;;-4.35;84.11;98082.71;1825489;77;21129;-75
2021/01/19 03:39:58;;;;;;;67.80;35.83;;;;;;;-4.39;84.17;98091.50;1825213;78;21121;-75
2021/01/19 03:42:24;;;;;;;67.15;32.58;;;;;;;-4.33;83.78;98092.09;1825177;77;21098;-75
2021/01/19 03:44:50;;;;;;;49.60;23.57;;;;;;;-4.24;83.71;98095.47;1825271;78;21257;-76
2021/01/19 03:47:16;;;;;;;84.92;37.75;;;;;;;-4.14;83.64;98091.21;1825037;78;21031;-76
2021/01/19 03:49:43;;;;;;;47.00;24.40;;;;;;;-4.16;83.41;98085.29;1824608;77;21122;-76
2021/01/19 03:52:09;;;;;;;29.42;13.55;;;;;;;-4.04;83.49;98075.35;1824638;78;21046;-75
2021/01/19 03:54:35;;;;;;;29.50;12.58;;;;;;;-4.01;83.76;98073.67;1824639;77;20998;-75
2021/01/19 03:57:01;;;;;;;54.15;27.77;;;;;;;-3.99;83.82;98067.69;1824609;78;21113;-75
2021/01/19 03:59:27;;;;;;;39.67;19.32;;;;;;;-4.01;83.52;98072.36;1824652;77;21419;-75
2021/01/19 04:01:53;;;;;;;46.58;20.65;;;;;;;-3.94;83.80;98077.70;1824725;78;21094;-75
2021/01/19 04:04:20;;;;;;;48.80;22.07;;;;;;;-3.90;83.83;98072.37;1824615;77;21038;-75
2021/01/19 04:06:46;;;;;;;55.25;24.70;;;;;;;-3.80;84.02;98071.56;1824604;78;21519;-75
2021/01/19 04:09:12;;;;;;;50.10;23.87;;;;;;;-3.72;84.02;98075.42;1824638;77;22009;-76
2021/01/19 04:11:38;;;;;;;44.23;19.40;;;;;;;-3.65;83.72;98073.36;1824515;78;21042;-76
2021/01/19 04:14:04;;;;;;;44.58;22.10;;;;;;;-3.57;83.73;98076.70;1824735;77;21499;-76
2021/01/19 04:16:31;;;;;;;65.25;27.45;;;;;;;-3.57;83.62;98073.23;1824577;78;21129;-75
2021/01/19 04:18:57;;;;;;;30.82;15.43;;;;;;;-3.53;84.36;98073.16;1824716;77;21018;-76
2021/01/19 04:21:25;;;;;;;47.03;22.07;;;;;;;-3.42;83.82;98072.65;1824602;78;21263;-76
2021/01/19 04:23:51;;;;;;;73.02;32.70;;;;;;;-3.44;83.76;98068.87;1824503;77;21114;-76
2021/01/19 04:26:17;;;;;;;72.22;36.10;;;;;;;-3.49;83.63;98076.58;1824620;78;21010;-76
2021/01/19 04:28:43;;;;;;;69.32;30.77;;;;;;;-3.44;83.59;98072.02;1824686;77;21118;-76
2021/01/19 04:31:09;;;;;;;24.07;11.43;;;;;;;-3.44;83.54;98067.55;1824628;78;21035;-76
2021/01/19 04:33:36;;;;;;;46.63;21.87;;;;;;;-3.28;84.10;98069.12;1824593;77;21958;-76
2021/01/19 04:36:02;;;;;;;46.65;23.00;;;;;;;-3.29;83.85;98069.31;1824785;78;21192;-75
2021/01/19 04:38:28;;;;;;;48.38;23.87;;;;;;;-3.27;83.81;98064.13;1826709;77;21407;-75
2021/01/19 04:40:54;;;;;;;56.37;31.95;;;;;;;-3.21;84.03;98063.38;1826612;78;21173;-75
2021/01/19 04:43:21;;;;;;;56.28;25.55;;;;;;;-3.18;83.84;98072.77;1794864;78;21129;-75
2021/01/19 04:45:47;;;;;;;62.73;26.20;;;;;;;-3.13;83.81;98073.03;1821437;78;21260;-75
2021/01/19 04:48:13;;;;;;;81.05;34.73;;;;;;;-3.10;83.92;98077.12;1826583;77;21466;-75
2021/01/19 04:50:39;;;;;;;62.30;26.55;;;;;;;-3.10;83.74;98077.12;1826653;78;21189;-75
2021/01/19 04:53:06;;;;;;;34.08;17.27;;;;;;;-3.05;83.71;98067.59;1826621;77;21524;-75
2021/01/19 04:55:37;;;;;;;62.25;28.15;;;;;;;-2.94;83.75;98068.38;1826714;78;21086;-75
2021/01/19 04:58:07;;;;;;;52.78;22.55;;;;;;;-3.00;83.75;98065.16;1826681;77;22227;-75
2021/01/19 05:00:35;;;;;;;51.23;26.27;;;;;;;-2.99;83.78;98072.61;1826620;78;21102;-75
2021/01/19 05:03:12;;;;;;;49.57;22.90;;;;;;;-3.03;83.65;98074.84;1826802;77;21105;-75
2021/01/19 05:06:00;;;;;;;50.35;26.87;;;;;;;-3.00;83.70;98069.66;1826743;78;21494;-74
2021/01/19 05:08:34;;;;;;;64.93;30.03;;;;;;;-2.99;83.72;98075.27;1826874;77;21098;-75
2021/01/19 05:11:22;;;;;;;50.17;24.80;;;;;;;-2.96;83.71;98074.91;1826689;78;21199;-75
2021/01/19 05:14:00;;;;;;;49.93;21.10;;;;;;;-2.91;83.44;98073.30;1826152;77;21074;-75
2021/01/19 05:16:36;;;;;;;56.92;25.15;;;;;;;-2.92;83.38;98070.84;1821246;78;21070;-75
2021/01/19 05:19:04;;;;;;;55.35;28.10;;;;;;;-3.01;83.41;98071.48;1821501;78;21098;-75
2021/01/19 05:21:38;;;;;;;68.17;30.72;;;;;;;-2.97;83.34;98073.27;1826720;78;20971;-74
2021/01/19 05:24:05;;;;;;;97.10;38.42;;;;;;;-2.96;83.35;98069.59;1826582;77;21192;-74
2021/01/19 05:26:33;;;;;;;65.90;30.15;;;;;;;-2.96;83.65;98074.39;1826510;78;21136;-74
2021/01/19 05:29:01;;;;;;;37.00;18.55;;;;;;;-2.93;83.39;98074.51;1826680;77;21018;-74
2021/01/19 05:31:28;;;;;;;55.60;28.23;;;;;;;-2.88;83.52;98077.41;1826466;78;21022;-75
2021/01/19 05:34:10;;;;;;;48.30;23.65;;;;;;;-2.88;83.65;98072.92;1826586;77;21032;-75
2021/01/19 05:36:49;;;;;;;51.53;23.55;;;;;;;-2.85;83.75;98076.51;1825986;78;22037;-74
2021/01/19 05:39:22;;;;;;;69.72;28.38;;;;;;;-2.79;83.84;98070.13;1824505;77;21027;-74
2021/01/19 05:41:53;;;;;;;140.15;54.80;;;;;;;-2.74;83.96;98073.00;1823603;78;21400;-75
2021/01/19 05:44:31;;;;;;;56.68;25.48;;;;;;;-2.68;84.12;98073.05;1824657;77;21412;-75
2021/01/19 05:47:07;;;;;;;84.15;39.35;;;;;;;-2.53;83.73;98068.16;1847690;76;22414;-73
2021/01/19 05:49:42;;;;;;;82.30;35.75;;;;;;;-2.57;83.78;98071.69;1788926;78;21023;-73
2021/01/19 05:52:13;;;;;;;89.90;33.13;;;;;;;-2.55;83.64;98072.34;1785977;80;21194;-74
2021/01/19 05:54:47;;;;;;;28.65;14.10;;;;;;;-2.54;83.75;98075.30;1785764;79;20960;-75
2021/01/19 05:57:18;;;;;;;36.50;14.30;;;;;;;-2.44;83.90;98075.77;1785368;80;21067;-75
2021/01/19 05:59:53;;;;;;;29.98;13.95;;;;;;;-2.43;84.14;98075.26;1785586;79;21099;-75
2021/01/19 06:02:21;;;;;;;59.10;19.98;;;;;;;-2.42;84.84;98082.20;1785945;80;20964;-74
2021/01/19 06:04:53;;;;;;;49.53;20.25;;;;;;;-2.32;84.65;98078.17;1755920;80;21340;-74
2021/01/19 06:07:23;;;;;;;61.02;24.87;;;;;;;-2.23;84.15;98078.83;1782982;80;20983;-75
2021/01/19 06:09:49;;;;;;;35.60;15.88;;;;;;;-2.23;84.07;98072.19;1785447;80;21562;-75
2021/01/19 06:12:18;;;;;;;41.48;16.73;;;;;;;-2.21;84.01;98070.18;1785816;80;21074;-75
2021/01/19 06:14:48;;;;;;;24.52;11.20;;;;;;;-2.18;84.02;98067.63;1785905;79;21090;-75
2021/01/19 06:17:20;;;;;;;50.38;24.92;;;;;;;-2.16;84.09;98061.09;1785931;80;21188;-74
2021/01/19 06:19:44;;;;;;;34.73;16.42;;;;;;;-2.21;84.03;98068.03;1755922;80;21503;-74
2021/01/19 06:22:14;;;;;;;46.10;18.55;;;;;;;-2.15;84.16;98073.86;1785948;80;21141;-73
2021/01/19 06:24:45;;;;;;;46.98;23.67;;;;;;;-2.16;84.61;98069.06;1785794;79;21110;-74
2021/01/19 06:27:26;;;;;;;15.78;7.60;;;;;;;-2.09;84.37;98063.28;1785903;80;21099;-75
2021/01/19 06:30:05;;;;;;;52.05;30.62;;;;;;;-1.99;84.25;98062.39;1785841;80;21197;-74
2021/01/19 06:32:37;;;;;;;60.75;21.95;;;;;;;-1.94;84.17;98067.13;1785857;79;21114;-74
2021/01/19 06:35:16;;;;;;;64.82;27.37;;;;;;;-1.89;84.52;98069.17;1785845;80;21484;-75
2021/01/19 06:37:44;;;;;;;56.53;21.48;;;;;;;-1.83;84.25;98067.88;1785973;79;21585;-75
2021/01/19 06:40:15;;;;;;;45.10;19.02;;;;;;;-1.73;83.98;98063.50;1785850;80;21110;-74
2021/01/19 06:42:42;;;;;;;61.23;25.88;;;;;;;-1.74;84.27;98073.31;1785805;79;21297;-74
2021/01/19 06:45:10;;;;;;;70.30;30.65;;;;;;;-1.68;83.85;98069.05;1785707;80;21585;-74
2021/01/19 06:47:49;;;;;;;53.33;24.07;;;;;;;-1.70;83.79;98079.06;1785935;79;21505;-75
2021/01/19 06:50:23;;;;;;;88.35;37.70;;;;;;;-1.68;83.68;98067.72;1781346;80;21150;-74
2021/01/19 06:53:36;;;;;;;41.65;19.80;;;;;;;-1.69;83.75;98070.07;1785859;79;21440;-74
2021/01/19 06:56:12;;;;;;;42.55;21.48;;;;;;;-1.64;83.69;98073.44;1785798;80;21205;-75
2021/01/19 06:58:53;;;;;;;25.85;13.53;;;;;;;-1.63;83.69;98073.75;1785171;79;21126;-74
2021/01/19 07:01:21;;;;;;;65.30;29.55;;;;;;;-1.61;83.73;98067.23;1785312;79;21111;-74
2021/01/19 07:03:49;;;;;;;59.13;25.15;;;;;;;-1.54;83.68;98073.87;1785331;79;21368;-74
2021/01/19 07:06:16;;;;;;;55.92;24.23;;;;;;;-1.53;83.58;98075.02;1755004;80;21400;-74
2021/01/19 07:09:19;;;;;;;48.35;19.62;;;;;;;-1.48;83.52;98078.39;1785219;79;21256;-75
2021/01/19 07:12:10;;;;;;;135.00;51.42;;;;;;;-1.46;83.67;98073.17;1783365;80;21090;-74
2021/01/19 07:14:46;;;;;;;38.90;16.07;;;;;;;-1.40;83.26;98074.73;1785332;79;21054;-75
2021/01/19 07:17:18;;;;;;;47.78;21.50;;;;;;;-1.35;83.21;98070.45;1783009;80;21090;-74
2021/01/19 07:19:48;;;;;;;71.50;30.77;;;;;;;-1.37;83.48;98078.30;1785218;79;21133;-74
2021/01/19 07:22:48;;;;;;;56.65;25.62;;;;;;;-1.38;83.65;98077.99;1785335;80;21125;-75
2021/01/19 07:25:14;;;;;;;31.82;14.00;;;;;;;-1.37;83.58;98077.79;1785061;80;21142;-74
2021/01/19 07:27:40;;;;;;;44.38;20.17;;;;;;;-1.29;83.14;98072.28;1754748;79;21126;-75
2021/01/19 07:30:08;;;;;;;48.98;19.90;;;;;;;-1.30;83.16;98074.63;1785320;80;21559;-74
2021/01/19 07:32:34;;;;;;;44.95;19.32;;;;;;;-1.31;83.31;98068.19;1785202;79;21096;-75
2021/01/19 07:35:00;;;;;;;53.30;21.48;;;;;;;-1.30;83.43;98070.64;1785252;80;21256;-74
2021/01/19 07:37:35;;;;;;;37.05;17.70;;;;;;;-1.30;83.40;98070.64;1785113;79;21038;-74
2021/01/19 07:40:06;;;;;;;36.10;18.98;;;;;;;-1.26;83.22;98079.05;1784950;79;21113;-74
2021/01/19 07:42:33;;;;;;;41.53;19.70;;;;;;;-1.25;83.19;98070.05;1781482;79;21098;-75
2021/01/19 07:45:03;;;;;;;39.45;17.92;;;;;;;-1.21;83.21;98070.76;1785337;80;21483;-75
2021/01/19 07:47:41;;;;;;;33.05;15.48;;;;;;;-1.22;83.16;98069.64;1785229;79;22206;-75
2021/01/19 07:50:17;;;;;;;21.35;12.53;;;;;;;-1.17;82.96;98074.66;1785164;80;21102;-74
2021/01/19 07:52:45;;;;;;;36.13;17.50;;;;;;;-1.18;83.09;98074.88;1784380;79;21215;-75
2021/01/19 07:55:19;;;;;;;23.32;11.88;;;;;;;-1.17;83.09;98073.84;1785306;80;21137;-75
2021/01/19 07:57:48;;;;;;;44.65;28.65;;;;;;;-1.12;82.83;98078.54;1785221;79;21197;-74
2021/01/19 08:00:25;;;;;;;25.62;12.60;;;;;;;-1.08;82.66;98081.94;1785345;80;21174;-74
2021/01/19 08:03:05;;;;;;;26.65;12.58;;;;;;;-1.10;82.67;98076.00;1785194;79;20905;-75
2021/01/19 08:05:31;;;;;;;31.17;14.85;;;;;;;-1.07;82.71;98066.28;1785245;80;21495;-74
2021/01/19 08:07:57;;;;;;;25.10;12.37;;;;;;;-1.04;82.63;98063.20;1785148;79;21039;-75
2021/01/19 08:10:26;;;;;;;18.62;7.87;;;;;;;-0.99;82.41;98070.58;1785243;80;21463;-75
2021/01/19 08:12:56;;;;;;;35.45;15.20;;;;;;;-0.92;82.25;98067.41;1785323;79;21233;-74
2021/01/19 08:15:31;;;;;;;27.27;12.78;;;;;;;-0.93;82.39;98067.11;1785183;80;21066;-74
2021/01/19 08:18:00;;;;;;;40.15;18.32;;;;;;;-0.83;82.21;98064.03;1785266;79;21393;-75
2021/01/19 08:20:32;;;;;;;28.47;13.95;;;;;;;-0.82;82.17;98069.66;1785399;80;21075;-75
2021/01/19 08:23:16;;;;;;;38.20;16.30;;;;;;;-0.78;82.15;98055.72;1785312;79;21502;-75
2021/01/19 08:25:42;;;;;;;34.53;13.80;;;;;;;-0.73;82.03;98062.58;1785154;80;21244;-74
2021/01/19 08:28:10;;;;;;;39.50;17.67;;;;;;;-0.68;81.88;98062.80;1785151;79;21130;-74
2021/01/19 08:30:40;;;;;;;28.40;14.40;;;;;;;-0.65;81.84;98061.55;1785269;79;21480;-74
2021/01/19 08:33:06;;;;;;;34.65;16.40;;;;;;;-0.66;81.85;98066.58;1785291;79;21058;-75
2021/01/19 08:35:32;;;;;;;27.87;12.93;;;;;;;-0.64;81.81;98059.20;1785186;80;21524;-75
2021/01/19 08:38:02;;;;;;;32.78;17.62;;;;;;;-0.64;81.63;98068.00;1785202;79;21255;-75
2021/01/19 08:40:32;;;;;;;32.13;17.80;;;;;;;-0.60;81.51;98056.41;1785140;80;21122;-75
2021/01/19 08:42:58;;;;;;;27.55;14.30;;;;;;;-0.57;81.46;98070.14;1784078;79;21142;-75
2021/01/19 08:45:38;;;;;;;46.77;23.87;;;;;;;-0.49;81.47;98065.63;1785148;80;21574;-75
2021/01/19 08:48:05;;;;;;;30.02;16.77;;;;;;;-0.51;81.47;98063.18;1785154;79;21432;-74
2021/01/19 08:50:37;;;;;;;25.50;14.63;;;;;;;-0.48;81.26;98057.95;1755099;80;21194;-74
2021/01/19 08:53:12;;;;;;;38.10;19.75;;;;;;;-0.41;81.06;98055.58;1785199;79;21074;-75
2021/01/19 08:55:39;;;;;;;19.62;8.83;;;;;;;-0.36;80.94;98054.42;1785170;80;21066;-74
2021/01/19 08:58:06;;;;;;;35.58;19.00;;;;;;;-0.26;80.80;98066.48;1785232;79;21079;-73
2021/01/19 09:00:34;;;;;;;27.20;14.65;;;;;;;-0.30;80.71;98066.91;1785293;80;21487;-74
2021/01/19 09:03:13;;;;;;;16.90;8.73;;;;;;;-0.25;80.67;98058.30;1785445;79;22013;-74
2021/01/19 09:05:40;;;;;;;32.35;14.53;;;;;;;-0.13;80.18;98063.27;1784582;80;21110;-74
2021/01/19 09:08:15;;;;;;;24.57;12.78;;;;;;;-0.17;80.47;98058.56;1785107;79;21106;-75
2021/01/19 09:10:41;;;;;;;21.77;10.28;;;;;;;-0.14;80.55;98059.48;1785183;80;21070;-75
2021/01/19 09:13:07;;;;;;;23.22;13.40;;;;;;;-0.04;80.22;98063.86;1785232;79;21468;-75
2021/01/19 09:15:42;;;;;;;21.35;11.60;;;;;;;-0.03;80.40;98064.97;1785221;80;21197;-75
2021/01/19 09:18:12;;;;;;;25.20;13.78;;;;;;;0.07;80.45;98072.52;1755791;80;21134;-74
2021/01/19 09:20:41;;;;;;;18.70;9.75;;;;;;;0.18;80.21;98061.21;1785141;79;20996;-75
2021/01/19 09:23:15;;;;;;;25.05;12.07;;;;;;;0.31;79.93;98065.64;1784735;79;21586;-75
2021/01/19 09:25:45;;;;;;;26.90;15.60;;;;;;;0.33;80.00;98064.09;1785164;80;21471;-74
2021/01/19 09:28:12;;;;;;;26.33;15.93;;;;;;;0.39;79.75;98063.25;1785190;79;21145;-75
2021/01/19 09:30:39;;;;;;;24.05;15.10;;;;;;;0.44;79.94;98067.44;1785102;80;21130;-75
2021/01/19 09:33:06;;;;;;;23.77;14.35;;;;;;;0.55;79.79;98065.42;1785066;79;21102;-75
2021/01/19 09:35:32;;;;;;;39.05;19.02;;;;;;;0.61;79.68;98073.09;1785143;80;21483;-75
2021/01/19 09:37:59;;;;;;;33.20;14.40;;;;;;;0.62;79.45;98074.20;1785185;79;21070;-76
2021/01/19 09:40:34;;;;;;;29.20;15.48;;;;;;;0.71;79.35;98074.25;1785151;80;21959;-75
2021/01/19 09:43:08;;;;;;;198.00;71.80;;;;;;;0.66;79.53;98071.39;1785104;79;21114;-74
2021/01/19 09:45:35;;;;;;;42.75;20.48;;;;;;;0.60;79.74;98072.77;1785212;80;21095;-76
2021/01/19 09:48:01;;;;;;;29.27;14.73;;;;;;;0.63;79.59;98077.17;1785043;79;21091;-75
2021/01/19 09:50:28;;;;;;;33.38;15.68;;;;;;;0.68;79.71;98069.84;1785245;80;21157;-75
2021/01/19 09:52:54;;;;;;;25.55;13.58;;;;;;;0.69;79.68;98062.98;1785173;79;21196;-75
2021/01/19 09:55:21;;;;;;;35.85;17.70;;;;;;;0.69;79.77;98060.31;1785177;80;21143;-76
2021/01/19 09:58:04;;;;;;;31.97;15.48;;;;;;;0.73;79.63;98055.35;1785159;79;21182;-75
2021/01/19 10:00:37;;;;;;;28.73;17.67;;;;;;;0.75;79.74;98051.95;1785263;80;21467;-75
2021/01/19 10:03:15;;;;;;;30.85;17.07;;;;;;;0.77;79.66;98056.05;1785191;79;21115;-75
2021/01/19 10:05:43;;;;;;;36.40;21.82;;;;;;;0.76;79.55;98053.06;1785243;80;21183;-75
2021/01/19 10:08:10;;;;;;;25.20;14.20;;;;;;;0.74;79.73;98053.80;1785082;79;21086;-75
2021/01/19 10:10:40;;;;;;;25.88;16.40;;;;;;;0.68;79.25;98043.98;1785194;80;21507;-75
2021/01/19 10:13:07;;;;;;;27.07;14.15;;;;;;;0.62;79.57;98050.72;1784498;79;21091;-74
2021/01/19 10:15:35;;;;;;;26.87;16.20;;;;;;;0.65;79.40;98043.61;1785082;79;21586;-74
2021/01/19 10:18:01;;;;;;;28.50;12.75;;;;;;;0.59;79.84;98047.94;1785111;79;21490;-75
2021/01/19 10:20:35;;;;;;;20.77;14.68;;;;;;;0.64;79.69;98042.80;1785050;80;21142;-74
2021/01/19 10:23:01;;;;;;;33.53;18.57;;;;;;;0.58;80.11;98032.98;1785086;79;21495;-75
2021/01/19 10:25:29;;;;;;;47.45;23.62;;;;;;;0.61;79.86;98027.23;1785085;80;21145;-75
2021/01/19 10:28:01;;;;;;;39.42;19.00;;;;;;;0.68;80.07;98027.16;1785221;79;21023;-75
2021/01/19 10:30:35;;;;;;;51.92;24.70;;;;;;;0.81;80.20;98027.08;1785105;80;21138;-74
2021/01/19 10:33:03;;;;;;;19.27;7.37;;;;;;;0.98;79.68;98018.02;1785123;79;21118;-75
2021/01/19 10:35:34;;;;;;;24.57;12.65;;;;;;;1.17;79.38;98017.02;1785363;80;21122;-74
2021/01/19 10:38:05;;;;;;;28.15;16.73;;;;;;;1.22;78.90;98009.19;1785231;79;21086;-75
2021/01/19 10:40:32;;;;;;;93.70;37.13;;;;;;;1.25;79.26;98006.06;1785375;80;21087;-75
2021/01/19 10:43:01;;;;;;;60.48;27.75;;;;;;;1.41;78.90;98006.02;1785209;79;21195;-75
2021/01/19 10:45:30;;;;;;;60.12;19.27;;;;;;;1.41;78.90;97992.66;1785212;79;21106;-75
2021/01/19 10:47:58;;;;;;;984.73;443.82;;;;;;;1.51;78.48;97988.14;1794953;78;21050;-75
2021/01/19 10:50:30;;;;;;;370.97;158.40;;;;;;;1.57;78.54;97984.59;1799915;79;21495;-75
2021/01/19 10:53:01;;;;;;;126.50;51.20;;;;;;;1.67;78.88;97983.55;1799779;78;21034;-74
2021/01/19 10:55:27;;;;;;;54.80;30.55;;;;;;;1.88;78.78;97984.92;1799817;79;21153;-74
2021/01/19 10:57:56;;;;;;;59.93;30.57;;;;;;;2.06;78.15;97986.78;1799749;78;21038;-74
2021/01/19 11:00:25;;;;;;;109.92;45.78;;;;;;;2.20;78.54;97988.22;1799762;79;21086;-75
2021/01/19 11:02:52;;;;;;;36.60;20.20;;;;;;;2.42;77.37;97977.31;1799731;78;21403;-74
2021/01/19 11:05:19;;;;;;;48.80;18.90;;;;;;;2.44;77.06;97971.20;1799892;79;21109;-74
2021/01/19 11:07:49;;;;;;;30.68;17.02;;;;;;;2.50;75.68;97968.15;1799747;78;21294;-74
2021/01/19 11:10:21;;;;;;;42.93;25.27;;;;;;;2.41;76.44;97962.31;1773287;79;21090;-75
2021/01/19 11:12:47;;;;;;;96.02;45.00;;;;;;;2.38;74.24;97957.92;1799251;78;21102;-75
2021/01/19 11:15:14;;;;;;;42.93;22.62;;;;;;;2.59;76.23;97957.41;1799735;79;21149;-74
2021/01/19 11:17:40;;;;;;;49.03;26.35;;;;;;;2.44;75.24;97961.03;1780803;79;21098;-74
2021/01/19 11:20:11;;;;;;;101.22;46.33;;;;;;;2.64;76.00;97959.37;1780801;80;21190;-74
2021/01/19 11:22:37;;;;;;;50.08;26.05;;;;;;;2.65;75.47;97959.67;1780678;79;21027;-73
2021/01/19 11:25:05;;;;;;;44.08;24.10;;;;;;;2.66;75.10;97955.97;1780889;80;21555;-73
2021/01/19 11:27:31;;;;;;;51.73;29.50;;;;;;;2.58;75.43;97949.63;1736424;81;21127;-73
2021/01/19 11:29:57;;;;;;;86.60;49.77;;;;;;;2.62;75.42;97944.90;1749902;81;21122;-74
2021/01/19 11:32:24;;;;;;;46.98;27.07;;;;;;;2.72;75.94;97945.14;1749828;82;21127;-73